sensor_id;sensor_type;location;lat;lon;timestamp;P1;durP1;ratioP1;P2;durP2;ratioP2
15393;SDS011;7795;47.986;11.868;2022-09-21T00:01:06;1.87;;;1.50;;
15393;SDS011;7795;47.986;11.868;2022-09-21T00:03:32;2.90;;;1.50;;
15393;SDS011;7795;47.986;11.868;2022-09-21T00:06:02;3.43;;;1.53;;
15393;SDS011;7795;47.986;11.868;2022-09-21T00:08:29;3.33;;;1.53;;
15393;SDS011;7795;47.986;11.868;2022-09-21T00:10:55;1.77;;;1.30;;
15393;SDS011;7795;47.986;11.868;2022-09-21T00:13:21;1.50;;;1.40;;
15393;SDS011;7795;47.986;11.868;2022-09-21T00:15:48;3.63;;;1.80;;
15393;SDS011;7795;47.986;11.868;2022-09-21T00:18:13;5.37;;;1.60;;
15393;SDS011;7795;47.986;11.868;2022-09-21T00:20:39;1.60;;;1.20;;
15393;SDS011;7795;47.986;11.868;2022-09-21T00:23:09;1.57;;;1.47;;
15393;SDS011;7795;47.986;11.868;2022-09-21T00:25:36;1.90;;;1.80;;
15393;SDS011;7795;47.986;11.868;2022-09-21T00:28:02;4.43;;;1.77;;
15393;SDS011;7795;47.986;11.868;2022-09-21T00:30:27;1.67;;;1.53;;
15393;SDS011;7795;47.986;11.868;2022-09-21T00:32:53;1.77;;;1.40;;
15393;SDS011;7795;47.986;11.868;2022-09-21T00:35:19;1.93;;;1.43;;
15393;SDS011;7795;47.986;11.868;2022-09-21T00:37:44;1.40;;;1.30;;
15393;SDS011;7795;47.986;11.868;2022-09-21T00:40:10;3.20;;;1.50;;
15393;SDS011;7795;47.986;11.868;2022-09-21T00:42:37;2.07;;;1.40;;
15393;SDS011;7795;47.986;11.868;2022-09-21T00:45:03;1.17;;;1.07;;
15393;SDS011;7795;47.986;11.868;2022-09-21T00:47:32;1.10;;;1.00;;
15393;SDS011;7795;47.986;11.868;2022-09-21T00:50:01;1.43;;;1.20;;
15393;SDS011;7795;47.986;11.868;2022-09-21T00:52:29;2.07;;;1.50;;
15393;SDS011;7795;47.986;11.868;2022-09-21T00:54:59;2.17;;;1.30;;
15393;SDS011;7795;47.986;11.868;2022-09-21T00:57:31;1.50;;;1.30;;
15393;SDS011;7795;47.986;11.868;2022-09-21T01:00:03;1.63;;;1.53;;
15393;SDS011;7795;47.986;11.868;2022-09-21T01:02:32;2.57;;;1.93;;
15393;SDS011;7795;47.986;11.868;2022-09-21T01:04:58;2.90;;;2.53;;
15393;SDS011;7795;47.986;11.868;2022-09-21T01:07:27;3.00;;;2.73;;
15393;SDS011;7795;47.986;11.868;2022-09-21T01:09:56;3.53;;;1.93;;
15393;SDS011;7795;47.986;11.868;2022-09-21T01:12:29;2.00;;;1.80;;
15393;SDS011;7795;47.986;11.868;2022-09-21T01:15:12;1.70;;;1.43;;
15393;SDS011;7795;47.986;11.868;2022-09-21T01:17:48;1.73;;;1.53;;
15393;SDS011;7795;47.986;11.868;2022-09-21T01:20:37;3.17;;;2.00;;
15393;SDS011;7795;47.986;11.868;2022-09-21T01:23:35;2.33;;;1.20;;
15393;SDS011;7795;47.986;11.868;2022-09-21T01:26:15;1.67;;;1.30;;
15393;SDS011;7795;47.986;11.868;2022-09-21T01:31:41;1.77;;;1.37;;
15393;SDS011;7795;47.986;11.868;2022-09-21T01:34:13;2.77;;;1.20;;
15393;SDS011;7795;47.986;11.868;2022-09-21T01:36:43;1.63;;;1.20;;
15393;SDS011;7795;47.986;11.868;2022-09-21T01:39:13;3.53;;;1.73;;
15393;SDS011;7795;47.986;11.868;2022-09-21T01:41:41;1.70;;;1.30;;
15393;SDS011;7795;47.986;11.868;2022-09-21T01:44:11;1.47;;;1.30;;
15393;SDS011;7795;47.986;11.868;2022-09-21T01:46:42;1.50;;;1.40;;
15393;SDS011;7795;47.986;11.868;2022-09-21T01:49:12;1.37;;;1.10;;
15393;SDS011;7795;47.986;11.868;2022-09-21T01:51:42;3.63;;;1.33;;
15393;SDS011;7795;47.986;11.868;2022-09-21T01:54:13;1.57;;;1.40;;
15393;SDS011;7795;47.986;11.868;2022-09-21T01:56:44;3.20;;;1.40;;
15393;SDS011;7795;47.986;11.868;2022-09-21T01:59:16;1.63;;;1.40;;
15393;SDS011;7795;47.986;11.868;2022-09-21T02:01:48;3.63;;;3.40;;
15393;SDS011;7795;47.986;11.868;2022-09-21T02:04:17;3.37;;;2.80;;
15393;SDS011;7795;47.986;11.868;2022-09-21T02:06:44;2.00;;;1.80;;
15393;SDS011;7795;47.986;11.868;2022-09-21T02:09:11;1.63;;;1.47;;
15393;SDS011;7795;47.986;11.868;2022-09-21T02:11:38;2.13;;;1.50;;
15393;SDS011;7795;47.986;11.868;2022-09-21T02:14:07;1.73;;;1.50;;
15393;SDS011;7795;47.986;11.868;2022-09-21T02:16:37;1.47;;;1.37;;
15393;SDS011;7795;47.986;11.868;2022-09-21T02:19:08;3.50;;;1.87;;
15393;SDS011;7795;47.986;11.868;2022-09-21T02:21:39;2.80;;;1.97;;
15393;SDS011;7795;47.986;11.868;2022-09-21T02:24:16;2.20;;;2.00;;
15393;SDS011;7795;47.986;11.868;2022-09-21T02:26:49;3.80;;;1.77;;
15393;SDS011;7795;47.986;11.868;2022-09-21T02:29:21;2.10;;;1.97;;
15393;SDS011;7795;47.986;11.868;2022-09-21T02:31:54;2.90;;;2.60;;
15393;SDS011;7795;47.986;11.868;2022-09-21T02:34:29;2.37;;;2.17;;
15393;SDS011;7795;47.986;11.868;2022-09-21T02:36:59;1.80;;;1.70;;
15393;SDS011;7795;47.986;11.868;2022-09-21T02:39:31;3.13;;;1.77;;
15393;SDS011;7795;47.986;11.868;2022-09-21T02:42:02;2.23;;;1.60;;
15393;SDS011;7795;47.986;11.868;2022-09-21T02:44:33;3.07;;;1.83;;
15393;SDS011;7795;47.986;11.868;2022-09-21T02:47:07;3.67;;;1.90;;
15393;SDS011;7795;47.986;11.868;2022-09-21T02:49:38;1.00;;;1.00;;
15393;SDS011;7795;47.986;11.868;2022-09-21T02:52:09;1.70;;;1.60;;
15393;SDS011;7795;47.986;11.868;2022-09-21T02:54:37;2.13;;;1.60;;
15393;SDS011;7795;47.986;11.868;2022-09-21T02:57:04;2.20;;;1.40;;
15393;SDS011;7795;47.986;11.868;2022-09-21T02:59:31;1.47;;;1.37;;
15393;SDS011;7795;47.986;11.868;2022-09-21T03:01:57;1.40;;;1.30;;
15393;SDS011;7795;47.986;11.868;2022-09-21T03:04:24;1.53;;;1.30;;
15393;SDS011;7795;47.986;11.868;2022-09-21T03:06:51;4.20;;;1.67;;
15393;SDS011;7795;47.986;11.868;2022-09-21T03:09:17;2.13;;;1.40;;
15393;SDS011;7795;47.986;11.868;2022-09-21T03:11:45;1.73;;;1.50;;
15393;SDS011;7795;47.986;11.868;2022-09-21T03:14:10;2.53;;;1.80;;
15393;SDS011;7795;47.986;11.868;2022-09-21T03:16:37;1.27;;;1.17;;
15393;SDS011;7795;47.986;11.868;2022-09-21T03:19:03;1.73;;;1.47;;
15393;SDS011;7795;47.986;11.868;2022-09-21T03:21:31;1.43;;;1.20;;
15393;SDS011;7795;47.986;11.868;2022-09-21T03:23:56;2.47;;;1.20;;
15393;SDS011;7795;47.986;11.868;2022-09-21T03:26:22;2.27;;;1.50;;
15393;SDS011;7795;47.986;11.868;2022-09-21T03:28:48;1.90;;;1.40;;
15393;SDS011;7795;47.986;11.868;2022-09-21T03:31:14;2.13;;;1.57;;
15393;SDS011;7795;47.986;11.868;2022-09-21T03:33:40;1.67;;;1.57;;
15393;SDS011;7795;47.986;11.868;2022-09-21T03:36:06;5.40;;;2.00;;
15393;SDS011;7795;47.986;11.868;2022-09-21T03:38:33;3.00;;;1.50;;
15393;SDS011;7795;47.986;11.868;2022-09-21T03:41:00;3.30;;;1.40;;
15393;SDS011;7795;47.986;11.868;2022-09-21T03:43:25;2.50;;;1.60;;
15393;SDS011;7795;47.986;11.868;2022-09-21T03:45:51;2.43;;;1.70;;
15393;SDS011;7795;47.986;11.868;2022-09-21T03:48:17;2.13;;;1.50;;
15393;SDS011;7795;47.986;11.868;2022-09-21T03:50:43;3.47;;;2.17;;
15393;SDS011;7795;47.986;11.868;2022-09-21T03:53:09;1.60;;;1.50;;
15393;SDS011;7795;47.986;11.868;2022-09-21T03:55:37;4.03;;;1.97;;
15393;SDS011;7795;47.986;11.868;2022-09-21T03:58:03;1.80;;;1.70;;
15393;SDS011;7795;47.986;11.868;2022-09-21T04:00:28;3.87;;;1.60;;
15393;SDS011;7795;47.986;11.868;2022-09-21T04:02:54;1.50;;;1.40;;
15393;SDS011;7795;47.986;11.868;2022-09-21T04:05:20;1.77;;;1.50;;
15393;SDS011;7795;47.986;11.868;2022-09-21T04:07:46;3.30;;;1.50;;
15393;SDS011;7795;47.986;11.868;2022-09-21T04:10:13;2.07;;;1.50;;
15393;SDS011;7795;47.986;11.868;2022-09-21T04:12:41;4.03;;;1.63;;
15393;SDS011;7795;47.986;11.868;2022-09-21T04:15:08;10.07;;;2.10;;
15393;SDS011;7795;47.986;11.868;2022-09-21T04:17:35;3.43;;;2.17;;
15393;SDS011;7795;47.986;11.868;2022-09-21T04:20:01;3.13;;;1.47;;
15393;SDS011;7795;47.986;11.868;2022-09-21T04:22:27;2.87;;;1.60;;
15393;SDS011;7795;47.986;11.868;2022-09-21T04:24:53;1.50;;;1.40;;
15393;SDS011;7795;47.986;11.868;2022-09-21T04:27:18;2.50;;;1.70;;
15393;SDS011;7795;47.986;11.868;2022-09-21T04:29:45;2.13;;;1.90;;
15393;SDS011;7795;47.986;11.868;2022-09-21T04:32:11;2.20;;;1.70;;
15393;SDS011;7795;47.986;11.868;2022-09-21T04:34:37;2.90;;;1.63;;
15393;SDS011;7795;47.986;11.868;2022-09-21T04:37:03;3.10;;;1.90;;
15393;SDS011;7795;47.986;11.868;2022-09-21T04:39:29;2.57;;;1.80;;
15393;SDS011;7795;47.986;11.868;2022-09-21T04:41:55;1.80;;;1.70;;
15393;SDS011;7795;47.986;11.868;2022-09-21T04:44:21;1.80;;;1.70;;
15393;SDS011;7795;47.986;11.868;2022-09-21T04:46:48;2.50;;;1.47;;
15393;SDS011;7795;47.986;11.868;2022-09-21T04:49:13;2.67;;;1.90;;
15393;SDS011;7795;47.986;11.868;2022-09-21T04:51:39;3.20;;;1.63;;
15393;SDS011;7795;47.986;11.868;2022-09-21T04:54:05;1.73;;;1.63;;
15393;SDS011;7795;47.986;11.868;2022-09-21T04:56:30;1.50;;;1.40;;
15393;SDS011;7795;47.986;11.868;2022-09-21T04:58:56;2.43;;;1.50;;
15393;SDS011;7795;47.986;11.868;2022-09-21T05:01:22;4.23;;;2.10;;
15393;SDS011;7795;47.986;11.868;2022-09-21T05:03:49;3.10;;;1.90;;
15393;SDS011;7795;47.986;11.868;2022-09-21T05:06:15;4.93;;;3.57;;
15393;SDS011;7795;47.986;11.868;2022-09-21T05:08:40;4.17;;;2.93;;
15393;SDS011;7795;47.986;11.868;2022-09-21T05:11:25;2.97;;;2.63;;
15393;SDS011;7795;47.986;11.868;2022-09-21T05:13:51;3.60;;;2.40;;
15393;SDS011;7795;47.986;11.868;2022-09-21T05:16:16;4.20;;;2.63;;
15393;SDS011;7795;47.986;11.868;2022-09-21T05:18:43;4.27;;;2.23;;
15393;SDS011;7795;47.986;11.868;2022-09-21T05:21:11;4.30;;;2.90;;
15393;SDS011;7795;47.986;11.868;2022-09-21T05:23:38;2.93;;;2.50;;
15393;SDS011;7795;47.986;11.868;2022-09-21T05:26:04;4.33;;;2.90;;
15393;SDS011;7795;47.986;11.868;2022-09-21T05:28:31;5.50;;;3.03;;
15393;SDS011;7795;47.986;11.868;2022-09-21T05:30:58;3.30;;;2.17;;
15393;SDS011;7795;47.986;11.868;2022-09-21T05:33:29;3.17;;;2.10;;
15393;SDS011;7795;47.986;11.868;2022-09-21T05:36:00;2.87;;;2.00;;
15393;SDS011;7795;47.986;11.868;2022-09-21T05:38:33;2.30;;;2.10;;
15393;SDS011;7795;47.986;11.868;2022-09-21T05:40:59;3.03;;;2.20;;
15393;SDS011;7795;47.986;11.868;2022-09-21T05:43:25;3.67;;;2.17;;
15393;SDS011;7795;47.986;11.868;2022-09-21T05:45:55;3.67;;;2.70;;
15393;SDS011;7795;47.986;11.868;2022-09-21T05:48:27;3.03;;;2.23;;
15393;SDS011;7795;47.986;11.868;2022-09-21T05:50:58;2.93;;;2.33;;
15393;SDS011;7795;47.986;11.868;2022-09-21T05:59:04;1.60;;;1.50;;
15393;SDS011;7795;47.986;11.868;2022-09-21T06:01:45;2.73;;;1.80;;
15393;SDS011;7795;47.986;11.868;2022-09-21T06:04:20;3.03;;;1.80;;
15393;SDS011;7795;47.986;11.868;2022-09-21T06:06:46;1.50;;;1.40;;
15393;SDS011;7795;47.986;11.868;2022-09-21T06:09:13;1.93;;;1.77;;
15393;SDS011;7795;47.986;11.868;2022-09-21T06:11:39;2.00;;;1.70;;
15393;SDS011;7795;47.986;11.868;2022-09-21T06:14:05;4.13;;;1.83;;
15393;SDS011;7795;47.986;11.868;2022-09-21T06:16:35;1.73;;;1.53;;
15393;SDS011;7795;47.986;11.868;2022-09-21T06:19:02;6.70;;;4.77;;
15393;SDS011;7795;47.986;11.868;2022-09-21T06:21:27;4.63;;;2.17;;
15393;SDS011;7795;47.986;11.868;2022-09-21T06:23:53;1.97;;;1.60;;
15393;SDS011;7795;47.986;11.868;2022-09-21T06:26:20;3.17;;;2.20;;
15393;SDS011;7795;47.986;11.868;2022-09-21T06:28:46;2.97;;;2.17;;
15393;SDS011;7795;47.986;11.868;2022-09-21T06:31:11;3.37;;;2.07;;
15393;SDS011;7795;47.986;11.868;2022-09-21T06:33:37;3.80;;;2.50;;
15393;SDS011;7795;47.986;11.868;2022-09-21T06:36:03;5.33;;;2.43;;
15393;SDS011;7795;47.986;11.868;2022-09-21T06:38:29;2.63;;;2.33;;
15393;SDS011;7795;47.986;11.868;2022-09-21T06:40:59;3.83;;;2.60;;
15393;SDS011;7795;47.986;11.868;2022-09-21T06:43:27;3.70;;;3.13;;
15393;SDS011;7795;47.986;11.868;2022-09-21T06:45:53;3.63;;;2.93;;
15393;SDS011;7795;47.986;11.868;2022-09-21T06:48:20;4.17;;;2.93;;
15393;SDS011;7795;47.986;11.868;2022-09-21T06:50:46;3.00;;;2.70;;
15393;SDS011;7795;47.986;11.868;2022-09-21T06:53:12;5.47;;;4.23;;
15393;SDS011;7795;47.986;11.868;2022-09-21T06:55:38;3.40;;;2.67;;
15393;SDS011;7795;47.986;11.868;2022-09-21T06:58:04;2.97;;;2.30;;
15393;SDS011;7795;47.986;11.868;2022-09-21T07:00:31;2.80;;;2.50;;
15393;SDS011;7795;47.986;11.868;2022-09-21T07:02:57;3.10;;;2.57;;
15393;SDS011;7795;47.986;11.868;2022-09-21T07:05:23;3.10;;;2.80;;
15393;SDS011;7795;47.986;11.868;2022-09-21T07:07:50;3.37;;;2.93;;
15393;SDS011;7795;47.986;11.868;2022-09-21T07:10:20;2.77;;;2.57;;
15393;SDS011;7795;47.986;11.868;2022-09-21T07:12:46;3.23;;;2.50;;
15393;SDS011;7795;47.986;11.868;2022-09-21T07:15:15;3.10;;;2.43;;
15393;SDS011;7795;47.986;11.868;2022-09-21T07:17:42;2.97;;;2.17;;
15393;SDS011;7795;47.986;11.868;2022-09-21T07:20:08;3.13;;;2.73;;
15393;SDS011;7795;47.986;11.868;2022-09-21T07:22:34;3.00;;;2.80;;
15393;SDS011;7795;47.986;11.868;2022-09-21T07:25:00;3.30;;;2.93;;
15393;SDS011;7795;47.986;11.868;2022-09-21T07:27:27;7.33;;;5.00;;
15393;SDS011;7795;47.986;11.868;2022-09-21T07:29:54;3.10;;;2.70;;
15393;SDS011;7795;47.986;11.868;2022-09-21T07:32:20;3.97;;;2.50;;
15393;SDS011;7795;47.986;11.868;2022-09-21T07:34:47;2.80;;;2.50;;
15393;SDS011;7795;47.986;11.868;2022-09-21T07:37:13;3.87;;;2.40;;
15393;SDS011;7795;47.986;11.868;2022-09-21T07:39:39;3.67;;;2.37;;
15393;SDS011;7795;47.986;11.868;2022-09-21T07:42:05;2.60;;;2.10;;
15393;SDS011;7795;47.986;11.868;2022-09-21T07:44:31;2.97;;;2.33;;
15393;SDS011;7795;47.986;11.868;2022-09-21T07:46:57;3.53;;;2.20;;
15393;SDS011;7795;47.986;11.868;2022-09-21T07:49:23;3.13;;;1.77;;
15393;SDS011;7795;47.986;11.868;2022-09-21T07:51:50;3.03;;;1.97;;
15393;SDS011;7795;47.986;11.868;2022-09-21T07:54:15;3.07;;;2.00;;
15393;SDS011;7795;47.986;11.868;2022-09-21T07:56:41;2.87;;;1.97;;
15393;SDS011;7795;47.986;11.868;2022-09-21T07:59:27;2.00;;;1.77;;
15393;SDS011;7795;47.986;11.868;2022-09-21T08:01:56;2.33;;;1.40;;
15393;SDS011;7795;47.986;11.868;2022-09-21T08:04:23;1.83;;;1.33;;
15393;SDS011;7795;47.986;11.868;2022-09-21T08:06:50;2.33;;;1.30;;
15393;SDS011;7795;47.986;11.868;2022-09-21T08:09:15;2.63;;;1.33;;
15393;SDS011;7795;47.986;11.868;2022-09-21T08:11:41;2.20;;;1.50;;
15393;SDS011;7795;47.986;11.868;2022-09-21T08:14:10;2.60;;;1.63;;
15393;SDS011;7795;47.986;11.868;2022-09-21T08:16:43;2.53;;;1.50;;
15393;SDS011;7795;47.986;11.868;2022-09-21T08:19:09;1.53;;;1.20;;
15393;SDS011;7795;47.986;11.868;2022-09-21T08:21:35;2.57;;;1.50;;
15393;SDS011;7795;47.986;11.868;2022-09-21T08:24:02;4.27;;;1.67;;
15393;SDS011;7795;47.986;11.868;2022-09-21T08:26:28;2.93;;;1.57;;
15393;SDS011;7795;47.986;11.868;2022-09-21T08:28:53;2.87;;;2.03;;
15393;SDS011;7795;47.986;11.868;2022-09-21T08:31:22;3.53;;;1.77;;
15393;SDS011;7795;47.986;11.868;2022-09-21T08:33:49;3.73;;;2.13;;
15393;SDS011;7795;47.986;11.868;2022-09-21T08:36:15;4.53;;;2.77;;
15393;SDS011;7795;47.986;11.868;2022-09-21T08:38:41;4.13;;;2.97;;
15393;SDS011;7795;47.986;11.868;2022-09-21T08:41:13;3.37;;;2.40;;
15393;SDS011;7795;47.986;11.868;2022-09-21T08:43:41;3.53;;;2.10;;
15393;SDS011;7795;47.986;11.868;2022-09-21T08:46:10;8.20;;;4.90;;
15393;SDS011;7795;47.986;11.868;2022-09-21T08:48:39;5.20;;;2.83;;
15393;SDS011;7795;47.986;11.868;2022-09-21T08:51:08;3.03;;;2.00;;
15393;SDS011;7795;47.986;11.868;2022-09-21T08:53:38;3.27;;;2.17;;
15393;SDS011;7795;47.986;11.868;2022-09-21T08:56:09;3.10;;;1.73;;
15393;SDS011;7795;47.986;11.868;2022-09-21T08:58:37;2.93;;;1.80;;
15393;SDS011;7795;47.986;11.868;2022-09-21T09:01:07;3.67;;;2.00;;
15393;SDS011;7795;47.986;11.868;2022-09-21T09:03:57;3.00;;;1.83;;
15393;SDS011;7795;47.986;11.868;2022-09-21T09:06:44;3.70;;;2.17;;
15393;SDS011;7795;47.986;11.868;2022-09-21T09:12:21;2.40;;;2.10;;
15393;SDS011;7795;47.986;11.868;2022-09-21T09:15:09;3.27;;;1.77;;
15393;SDS011;7795;47.986;11.868;2022-09-21T09:17:44;1.93;;;1.50;;
15393;SDS011;7795;47.986;11.868;2022-09-21T09:20:18;3.20;;;1.50;;
15393;SDS011;7795;47.986;11.868;2022-09-21T09:22:46;1.20;;;1.10;;
15393;SDS011;7795;47.986;11.868;2022-09-21T09:25:19;2.53;;;1.80;;
15393;SDS011;7795;47.986;11.868;2022-09-21T09:27:47;1.63;;;1.50;;
15393;SDS011;7795;47.986;11.868;2022-09-21T09:30:19;1.70;;;1.60;;
15393;SDS011;7795;47.986;11.868;2022-09-21T09:32:50;3.00;;;1.63;;
15393;SDS011;7795;47.986;11.868;2022-09-21T09:35:21;3.83;;;1.90;;
15393;SDS011;7795;47.986;11.868;2022-09-21T09:37:50;1.43;;;1.30;;
15393;SDS011;7795;47.986;11.868;2022-09-21T09:40:21;2.13;;;1.70;;
15393;SDS011;7795;47.986;11.868;2022-09-21T09:42:55;3.60;;;1.30;;
15393;SDS011;7795;47.986;11.868;2022-09-21T09:45:31;2.43;;;1.33;;
15393;SDS011;7795;47.986;11.868;2022-09-21T09:48:12;2.17;;;1.40;;
15393;SDS011;7795;47.986;11.868;2022-09-21T09:50:47;2.50;;;1.40;;
15393;SDS011;7795;47.986;11.868;2022-09-21T09:53:13;1.40;;;1.30;;
15393;SDS011;7795;47.986;11.868;2022-09-21T09:55:43;4.50;;;1.40;;
15393;SDS011;7795;47.986;11.868;2022-09-21T09:58:15;2.00;;;1.40;;
15393;SDS011;7795;47.986;11.868;2022-09-21T10:00:43;2.07;;;1.47;;
15393;SDS011;7795;47.986;11.868;2022-09-21T10:03:14;1.60;;;1.30;;
15393;SDS011;7795;47.986;11.868;2022-09-21T10:05:42;2.83;;;1.30;;
15393;SDS011;7795;47.986;11.868;2022-09-21T10:08:19;1.40;;;1.27;;
15393;SDS011;7795;47.986;11.868;2022-09-21T10:10:52;1.20;;;1.10;;
15393;SDS011;7795;47.986;11.868;2022-09-21T10:13:21;1.23;;;1.13;;
15393;SDS011;7795;47.986;11.868;2022-09-21T10:15:53;3.07;;;1.30;;
15393;SDS011;7795;47.986;11.868;2022-09-21T10:18:22;4.10;;;1.37;;
15393;SDS011;7795;47.986;11.868;2022-09-21T10:20:51;2.03;;;0.90;;
15393;SDS011;7795;47.986;11.868;2022-09-21T10:23:19;0.73;;;0.73;;
15393;SDS011;7795;47.986;11.868;2022-09-21T10:25:51;2.17;;;0.93;;
15393;SDS011;7795;47.986;11.868;2022-09-21T10:28:18;2.53;;;2.13;;
15393;SDS011;7795;47.986;11.868;2022-09-21T10:30:46;1.57;;;0.90;;
15393;SDS011;7795;47.986;11.868;2022-09-21T10:33:17;2.20;;;0.93;;
15393;SDS011;7795;47.986;11.868;2022-09-21T10:35:48;1.97;;;0.87;;
15393;SDS011;7795;47.986;11.868;2022-09-21T10:38:15;1.43;;;0.90;;
15393;SDS011;7795;47.986;11.868;2022-09-21T10:40:42;1.67;;;1.10;;
15393;SDS011;7795;47.986;11.868;2022-09-21T10:43:19;1.03;;;0.90;;
15393;SDS011;7795;47.986;11.868;2022-09-21T10:45:52;1.80;;;1.10;;
15393;SDS011;7795;47.986;11.868;2022-09-21T10:48:22;1.33;;;0.90;;
15393;SDS011;7795;47.986;11.868;2022-09-21T10:50:50;0.90;;;0.77;;
15393;SDS011;7795;47.986;11.868;2022-09-21T10:53:18;1.97;;;0.93;;
15393;SDS011;7795;47.986;11.868;2022-09-21T10:55:50;2.33;;;1.10;;
15393;SDS011;7795;47.986;11.868;2022-09-21T10:58:21;4.30;;;1.33;;
15393;SDS011;7795;47.986;11.868;2022-09-21T11:00:47;1.67;;;1.03;;
15393;SDS011;7795;47.986;11.868;2022-09-21T11:03:27;1.90;;;0.80;;
15393;SDS011;7795;47.986;11.868;2022-09-21T11:06:10;1.23;;;0.90;;
15393;SDS011;7795;47.986;11.868;2022-09-21T11:08:42;1.00;;;0.90;;
15393;SDS011;7795;47.986;11.868;2022-09-21T11:11:16;1.60;;;0.70;;
15393;SDS011;7795;47.986;11.868;2022-09-21T11:13:56;1.03;;;0.63;;
15393;SDS011;7795;47.986;11.868;2022-09-21T11:16:29;2.30;;;0.97;;
15393;SDS011;7795;47.986;11.868;2022-09-21T11:19:01;0.80;;;0.80;;
15393;SDS011;7795;47.986;11.868;2022-09-21T11:21:33;1.40;;;0.87;;
15393;SDS011;7795;47.986;11.868;2022-09-21T11:26:52;1.50;;;0.70;;
15393;SDS011;7795;47.986;11.868;2022-09-21T11:29:22;1.63;;;0.77;;
15393;SDS011;7795;47.986;11.868;2022-09-21T11:31:55;2.00;;;0.60;;
15393;SDS011;7795;47.986;11.868;2022-09-21T11:34:37;0.70;;;0.60;;
15393;SDS011;7795;47.986;11.868;2022-09-21T11:37:19;1.83;;;1.00;;
15393;SDS011;7795;47.986;11.868;2022-09-21T11:39:59;0.90;;;0.80;;
15393;SDS011;7795;47.986;11.868;2022-09-21T11:42:40;1.83;;;0.70;;
15393;SDS011;7795;47.986;11.868;2022-09-21T11:45:21;3.37;;;1.23;;
15393;SDS011;7795;47.986;11.868;2022-09-21T11:48:00;1.67;;;0.67;;
15393;SDS011;7795;47.986;11.868;2022-09-21T11:50:42;2.63;;;0.63;;
15393;SDS011;7795;47.986;11.868;2022-09-21T11:56:15;0.87;;;0.53;;
15393;SDS011;7795;47.986;11.868;2022-09-21T11:58:56;1.13;;;0.70;;
15393;SDS011;7795;47.986;11.868;2022-09-21T12:01:36;1.33;;;0.80;;
15393;SDS011;7795;47.986;11.868;2022-09-21T12:04:16;1.90;;;0.83;;
15393;SDS011;7795;47.986;11.868;2022-09-21T12:07:06;1.20;;;0.70;;
15393;SDS011;7795;47.986;11.868;2022-09-21T12:09:53;0.97;;;0.53;;
15393;SDS011;7795;47.986;11.868;2022-09-21T12:12:28;1.27;;;0.60;;
15393;SDS011;7795;47.986;11.868;2022-09-21T12:15:00;1.50;;;0.70;;
15393;SDS011;7795;47.986;11.868;2022-09-21T12:17:35;3.03;;;0.97;;
15393;SDS011;7795;47.986;11.868;2022-09-21T12:20:09;1.90;;;1.03;;
15393;SDS011;7795;47.986;11.868;2022-09-21T12:22:42;1.80;;;0.60;;
15393;SDS011;7795;47.986;11.868;2022-09-21T12:25:12;1.77;;;0.70;;
15393;SDS011;7795;47.986;11.868;2022-09-21T12:27:42;2.90;;;0.90;;
15393;SDS011;7795;47.986;11.868;2022-09-21T12:30:12;1.07;;;0.97;;
15393;SDS011;7795;47.986;11.868;2022-09-21T12:32:46;1.27;;;1.10;;
15393;SDS011;7795;47.986;11.868;2022-09-21T12:35:19;1.27;;;0.90;;
15393;SDS011;7795;47.986;11.868;2022-09-21T12:37:52;1.20;;;0.60;;
15393;SDS011;7795;47.986;11.868;2022-09-21T12:40:24;2.20;;;1.17;;
15393;SDS011;7795;47.986;11.868;2022-09-21T12:42:59;2.83;;;0.80;;
15393;SDS011;7795;47.986;11.868;2022-09-21T12:45:31;0.70;;;0.70;;
15393;SDS011;7795;47.986;11.868;2022-09-21T12:48:01;0.80;;;0.80;;
15393;SDS011;7795;47.986;11.868;2022-09-21T12:50:34;2.00;;;0.97;;
15393;SDS011;7795;47.986;11.868;2022-09-21T12:53:07;1.10;;;0.70;;
15393;SDS011;7795;47.986;11.868;2022-09-21T12:55:41;1.87;;;0.80;;
15393;SDS011;7795;47.986;11.868;2022-09-21T12:58:16;1.23;;;0.70;;
15393;SDS011;7795;47.986;11.868;2022-09-21T13:00:52;2.00;;;0.70;;
15393;SDS011;7795;47.986;11.868;2022-09-21T13:03:26;1.20;;;0.77;;
15393;SDS011;7795;47.986;11.868;2022-09-21T13:06:04;0.70;;;0.70;;
15393;SDS011;7795;47.986;11.868;2022-09-21T13:08:45;1.10;;;1.10;;
15393;SDS011;7795;47.986;11.868;2022-09-21T13:11:12;2.07;;;0.70;;
15393;SDS011;7795;47.986;11.868;2022-09-21T13:13:45;1.37;;;0.77;;
15393;SDS011;7795;47.986;11.868;2022-09-21T13:16:23;1.00;;;0.83;;
15393;SDS011;7795;47.986;11.868;2022-09-21T13:18:55;2.37;;;0.83;;
15393;SDS011;7795;47.986;11.868;2022-09-21T13:21:25;0.77;;;0.70;;
15393;SDS011;7795;47.986;11.868;2022-09-21T13:23:55;1.00;;;0.70;;
15393;SDS011;7795;47.986;11.868;2022-09-21T13:26:30;1.77;;;0.70;;
15393;SDS011;7795;47.986;11.868;2022-09-21T13:32:01;1.37;;;0.70;;
15393;SDS011;7795;47.986;11.868;2022-09-21T13:34:44;1.40;;;0.80;;
15393;SDS011;7795;47.986;11.868;2022-09-21T13:43:40;0.97;;;0.80;;
15393;SDS011;7795;47.986;11.868;2022-09-21T13:49:19;0.77;;;0.63;;
15393;SDS011;7795;47.986;11.868;2022-09-21T13:51:51;1.33;;;0.70;;
15393;SDS011;7795;47.986;11.868;2022-09-21T13:54:22;1.20;;;0.70;;
15393;SDS011;7795;47.986;11.868;2022-09-21T13:56:56;1.00;;;0.70;;
15393;SDS011;7795;47.986;11.868;2022-09-21T13:59:28;1.77;;;0.90;;
15393;SDS011;7795;47.986;11.868;2022-09-21T14:01:57;1.60;;;1.10;;
15393;SDS011;7795;47.986;11.868;2022-09-21T14:04:23;1.43;;;0.70;;
15393;SDS011;7795;47.986;11.868;2022-09-21T14:06:51;1.23;;;0.70;;
15393;SDS011;7795;47.986;11.868;2022-09-21T14:09:21;0.80;;;0.80;;
15393;SDS011;7795;47.986;11.868;2022-09-21T14:11:54;1.37;;;0.70;;
15393;SDS011;7795;47.986;11.868;2022-09-21T14:14:23;2.43;;;0.67;;
15393;SDS011;7795;47.986;11.868;2022-09-21T14:16:54;3.00;;;0.90;;
15393;SDS011;7795;47.986;11.868;2022-09-21T14:22:40;2.27;;;1.07;;
15393;SDS011;7795;47.986;11.868;2022-09-21T14:25:24;1.60;;;0.80;;
15393;SDS011;7795;47.986;11.868;2022-09-21T14:27:57;0.90;;;0.60;;
15393;SDS011;7795;47.986;11.868;2022-09-21T14:30:25;1.07;;;0.70;;
15393;SDS011;7795;47.986;11.868;2022-09-21T14:33:00;1.53;;;0.70;;
15393;SDS011;7795;47.986;11.868;2022-09-21T14:35:39;2.83;;;0.67;;
15393;SDS011;7795;47.986;11.868;2022-09-21T14:38:12;0.73;;;0.60;;
15393;SDS011;7795;47.986;11.868;2022-09-21T14:40:44;2.07;;;0.60;;
15393;SDS011;7795;47.986;11.868;2022-09-21T14:43:13;1.33;;;0.60;;
15393;SDS011;7795;47.986;11.868;2022-09-21T14:45:53;0.77;;;0.50;;
15393;SDS011;7795;47.986;11.868;2022-09-21T14:48:40;1.70;;;0.70;;
15393;SDS011;7795;47.986;11.868;2022-09-21T14:51:16;1.93;;;0.70;;
15393;SDS011;7795;47.986;11.868;2022-09-21T14:53:53;3.03;;;1.03;;
15393;SDS011;7795;47.986;11.868;2022-09-21T14:56:29;2.50;;;1.10;;
15393;SDS011;7795;47.986;11.868;2022-09-21T14:59:09;1.23;;;0.50;;
15393;SDS011;7795;47.986;11.868;2022-09-21T15:01:53;0.70;;;0.70;;
15393;SDS011;7795;47.986;11.868;2022-09-21T15:04:36;2.00;;;0.83;;
15393;SDS011;7795;47.986;11.868;2022-09-21T15:07:16;0.70;;;0.70;;
15393;SDS011;7795;47.986;11.868;2022-09-21T15:10:22;0.83;;;0.57;;
15393;SDS011;7795;47.986;11.868;2022-09-21T15:13:11;1.27;;;0.60;;
15393;SDS011;7795;47.986;11.868;2022-09-21T15:15:46;1.03;;;0.70;;
15393;SDS011;7795;47.986;11.868;2022-09-21T15:18:32;0.63;;;0.43;;
15393;SDS011;7795;47.986;11.868;2022-09-21T15:21:17;1.80;;;0.80;;
15393;SDS011;7795;47.986;11.868;2022-09-21T15:23:46;1.73;;;1.00;;
15393;SDS011;7795;47.986;11.868;2022-09-21T15:26:12;0.90;;;0.60;;
15393;SDS011;7795;47.986;11.868;2022-09-21T15:28:43;0.70;;;0.70;;
15393;SDS011;7795;47.986;11.868;2022-09-21T15:31:15;0.53;;;0.40;;
15393;SDS011;7795;47.986;11.868;2022-09-21T15:33:42;1.27;;;0.60;;
15393;SDS011;7795;47.986;11.868;2022-09-21T15:36:19;1.53;;;0.63;;
15393;SDS011;7795;47.986;11.868;2022-09-21T15:38:47;4.03;;;0.80;;
15393;SDS011;7795;47.986;11.868;2022-09-21T15:41:17;1.07;;;0.70;;